Fair Play, California
Current Conditions -  °F | °C
As of 2:35 PM on Tuesday 21 Oct 2014 (Local Time) from KPVF Reporting Station
Clear Clear  
Wind Chill: 61°   Ceiling: Unl
Heat Index: 61°   Visibility: 10mi
Dew Point: 36°   Wind: 9mph
Humidity: 39%   Direction: 280°W
Pressure: 30.06"   Gusts: NA
Location:  38.6018°N, 120.509°W
Report Text: KPVF 212135Z AUTO 28008KT 10SM CLR 16/02 A3006 RMK AO1
Loading
Personal Weather Stations






























Interactive Weather Map
Tropical Storm Tracking
New forecast layout! Learn more

10-Day Weather Forecast

Advertisements
Track Severe Weather on mobile